createdAt,value
2023-02-14T00:01:57.120Z,101314.44
2023-02-14T00:04:01.315Z,101312.63
2023-02-14T00:06:11.506Z,101311.63
2023-02-14T00:08:16.280Z,101306.38
2023-02-14T00:10:19.427Z,101305.56
2023-02-14T00:12:22.018Z,101304.66
2023-02-14T00:14:42.483Z,101308.25
2023-02-14T00:16:47.081Z,101309.06
2023-02-14T00:19:04.098Z,101315.28
2023-02-14T00:21:06.146Z,101317.94
2023-02-14T00:23:08.159Z,101306.34
2023-02-14T00:25:10.431Z,101312.50
2023-02-14T00:27:12.509Z,101316.94
2023-02-14T00:29:17.087Z,101312.47
2023-02-14T00:31:19.480Z,101316.00
2023-02-14T00:33:23.585Z,101319.69
2023-02-14T00:35:25.701Z,101325.94
2023-02-14T00:37:29.633Z,101324.97
2023-02-14T00:39:32.158Z,101316.00
2023-02-14T00:41:34.428Z,101317.78
2023-02-14T00:43:36.323Z,101315.13
2023-02-14T00:45:38.395Z,101316.94
2023-02-14T00:47:40.296Z,101311.72
2023-02-14T00:49:42.709Z,101300.16
2023-02-14T00:51:44.747Z,101289.50
2023-02-14T00:53:49.204Z,101277.16
2023-02-14T00:55:51.727Z,101267.47
2023-02-14T00:57:57.083Z,101271.72
2023-02-14T00:59:59.098Z,101265.63
2023-02-14T01:02:02.626Z,101282.59
2023-02-14T01:04:05.171Z,101293.22
2023-02-14T01:06:08.212Z,101291.41
2023-02-14T01:08:10.544Z,101287.81
2023-02-14T01:10:13.578Z,101270.16
2023-02-14T01:12:17.979Z,101275.56
2023-02-14T01:14:19.960Z,101272.97
2023-02-14T01:16:24.151Z,101273.91
2023-02-14T01:18:26.150Z,101262.22
2023-02-14T01:20:28.512Z,101254.31
2023-02-14T01:22:34.762Z,101260.34
2023-02-14T01:24:36.774Z,101257.00
2023-02-14T01:26:39.538Z,101248.25
2023-02-14T01:28:42.274Z,101244.66
2023-02-14T01:30:44.377Z,101247.22
2023-02-14T01:32:46.665Z,101248.16
2023-02-14T01:34:48.879Z,101261.28
2023-02-14T01:36:51.181Z,101252.69
2023-02-14T01:38:57.044Z,101242.03
2023-02-14T01:40:59.562Z,101242.00
2023-02-14T01:43:05.891Z,101242.84
2023-02-14T01:45:21.028Z,101249.00
2023-02-14T01:47:23.792Z,101236.69
2023-02-14T01:49:37.924Z,101239.31
2023-02-14T01:51:46.761Z,101234.03
2023-02-14T01:53:50.318Z,101237.66
2023-02-14T01:56:06.164Z,101239.44
2023-02-14T01:58:25.458Z,101232.34
2023-02-14T02:00:46.860Z,101242.13
2023-02-14T02:02:49.469Z,101240.34
2023-02-14T02:04:56.945Z,101235.81
2023-02-14T02:07:05.105Z,101237.41
2023-02-14T02:09:22.482Z,101242.00
2023-02-14T02:11:24.678Z,101243.78
2023-02-14T02:13:26.671Z,101240.28
2023-02-14T02:15:35.410Z,101254.56
2023-02-14T02:18:20.308Z,101252.63
2023-02-14T02:20:29.164Z,101242.06
2023-02-14T02:22:38.446Z,101245.53
2023-02-14T02:24:43.336Z,101245.63
2023-02-14T02:26:45.309Z,101246.53
2023-02-14T02:29:12.287Z,101238.44
2023-02-14T02:32:08.319Z,101234.06
2023-02-14T02:34:18.974Z,101240.22
2023-02-14T02:36:41.036Z,101235.88
2023-02-14T02:38:58.381Z,101227.84
2023-02-14T02:41:32.698Z,101240.25
2023-02-14T02:44:03.832Z,101242.00
2023-02-14T02:46:35.460Z,101248.28
2023-02-14T02:48:45.504Z,101248.31
2023-02-14T02:51:22.751Z,101243.88
2023-02-14T02:53:39.960Z,101254.50
2023-02-14T02:56:46.148Z,101243.84
2023-02-14T02:59:05.017Z,101248.28
2023-02-14T03:01:14.841Z,101245.41
2023-02-14T03:03:35.804Z,101247.44
2023-02-14T03:05:38.276Z,101240.34
2023-02-14T03:07:40.581Z,101249.09
2023-02-14T03:09:43.390Z,101245.56
2023-02-14T03:12:31.410Z,101226.84
2023-02-14T03:14:57.354Z,101230.38
2023-02-14T03:17:50.864Z,101246.34
2023-02-14T03:20:17.828Z,101243.81
2023-02-14T03:22:43.650Z,101242.84
2023-02-14T03:24:53.953Z,101234.09
2023-02-14T03:27:05.118Z,101238.47
2023-02-14T03:29:20.219Z,101235.72
2023-02-14T03:31:38.523Z,101241.97
2023-02-14T03:33:53.186Z,101236.56
2023-02-14T03:36:10.925Z,101244.56
2023-02-14T03:38:33.428Z,101245.50
2023-02-14T03:40:49.578Z,101241.00
2023-02-14T03:42:57.586Z,101232.19
2023-02-14T03:45:02.843Z,101239.28
2023-02-14T03:47:13.027Z,101233.94
2023-02-14T03:49:24.036Z,101239.25
2023-02-14T03:51:28.513Z,101230.41
2023-02-14T03:53:35.236Z,101226.84
2023-02-14T03:55:44.874Z,101228.47
2023-02-14T03:57:59.891Z,101229.44
2023-02-14T04:00:03.322Z,101226.78
2023-02-14T04:02:16.465Z,101225.97
2023-02-14T04:04:21.775Z,101226.78
2023-02-14T04:06:24.062Z,101226.97
2023-02-14T04:08:28.588Z,101224.31
2023-02-14T04:10:30.999Z,101226.97
2023-02-14T04:12:38.037Z,101224.25
2023-02-14T04:14:40.827Z,101230.47
2023-02-14T04:17:01.813Z,101232.25
2023-02-14T04:19:22.412Z,101229.50
2023-02-14T04:21:24.806Z,101223.38
2023-02-14T04:23:27.293Z,101230.31
2023-02-14T04:25:29.757Z,101231.31
2023-02-14T04:27:31.824Z,101237.56
2023-02-14T04:29:34.142Z,101230.50
2023-02-14T04:31:36.293Z,101230.47
2023-02-14T04:33:39.416Z,101231.31
2023-02-14T04:35:41.704Z,101228.75
2023-02-14T04:37:44.293Z,101235.81
2023-02-14T04:39:46.380Z,101230.44
2023-02-14T04:41:48.471Z,101238.47
2023-02-14T04:43:50.808Z,101234.94
2023-02-14T04:45:53.026Z,101237.56
2023-02-14T04:47:55.033Z,101233.19
2023-02-14T04:49:57.033Z,101227.84
2023-02-14T04:51:59.603Z,101242.09
2023-02-14T04:54:01.955Z,101233.13
2023-02-14T04:56:04.439Z,101226.88
2023-02-14T04:58:06.454Z,101226.97
2023-02-14T05:00:09.220Z,101226.06
2023-02-14T05:02:11.315Z,101231.31
2023-02-14T05:04:13.802Z,101225.97
2023-02-14T05:06:16.082Z,101236.75
2023-02-14T05:08:18.342Z,101232.28
2023-02-14T05:10:20.445Z,101235.91
2023-02-14T05:12:22.630Z,101238.56
2023-02-14T05:14:24.805Z,101242.78
2023-02-14T05:16:27.150Z,101240.19
2023-02-14T05:18:29.672Z,101249.94
2023-02-14T05:20:32.287Z,101237.41
2023-02-14T05:22:34.483Z,101255.34
2023-02-14T05:24:36.574Z,101250.06
2023-02-14T05:26:38.789Z,101249.03
2023-02-14T05:28:41.344Z,101250.91
2023-02-14T05:30:43.865Z,101256.94
2023-02-14T05:32:45.975Z,101258.81
2023-02-14T05:34:50.426Z,101249.00
2023-02-14T05:36:55.172Z,101257.94
2023-02-14T05:38:57.346Z,101259.66
2023-02-14T05:40:59.944Z,101267.75
2023-02-14T05:43:04.785Z,101265.13
2023-02-14T05:45:07.247Z,101259.75
2023-02-14T05:47:11.005Z,101258.69
2023-02-14T05:49:14.655Z,101263.31
2023-02-14T05:51:16.887Z,101265.06
2023-02-14T05:53:19.002Z,101260.66
2023-02-14T05:55:21.383Z,101256.97
2023-02-14T05:57:23.844Z,101252.63
2023-02-14T05:59:25.990Z,101260.59
2023-02-14T06:01:28.108Z,101256.19
2023-02-14T06:03:30.328Z,101266.03
2023-02-14T06:05:32.492Z,101263.31
2023-02-14T06:07:34.986Z,101260.63
2023-02-14T06:09:37.425Z,101266.94
2023-02-14T06:11:39.931Z,101256.25
2023-02-14T06:13:42.008Z,101261.53
2023-02-14T06:15:44.476Z,101258.06
2023-02-14T06:17:54.568Z,101260.66
2023-02-14T06:19:56.709Z,101257.16
2023-02-14T06:21:58.612Z,101261.56
2023-02-14T06:24:00.924Z,101259.91
2023-02-14T06:26:03.989Z,101259.78
2023-02-14T06:28:06.747Z,101258.91
2023-02-14T06:30:10.846Z,101255.38
2023-02-14T06:32:14.009Z,101258.09
2023-02-14T06:34:16.385Z,101259.00
2023-02-14T06:36:19.343Z,101247.50
2023-02-14T06:38:21.627Z,101245.63
2023-02-14T06:40:24.376Z,101255.47
2023-02-14T06:42:26.644Z,101254.56
2023-02-14T06:44:28.893Z,101246.63
2023-02-14T06:46:31.318Z,101246.44
2023-02-14T06:48:33.603Z,101254.53
2023-02-14T06:50:35.992Z,101255.38
2023-02-14T06:52:37.989Z,101248.41
2023-02-14T06:54:40.288Z,101246.59
2023-02-14T06:56:42.742Z,101243.97
2023-02-14T06:58:45.197Z,101245.75
2023-02-14T07:00:47.871Z,101243.97
2023-02-14T07:02:49.960Z,101248.41
2023-02-14T07:04:52.066Z,101247.53
2023-02-14T07:06:54.623Z,101256.47
2023-02-14T07:08:56.779Z,101242.25
2023-02-14T07:10:59.269Z,101249.31
2023-02-14T07:13:01.692Z,101251.16
2023-02-14T07:15:04.292Z,101234.22
2023-02-14T07:17:06.380Z,101238.75
2023-02-14T07:19:08.464Z,101231.69
2023-02-14T07:21:10.562Z,101243.19
2023-02-14T07:23:13.080Z,101241.31
2023-02-14T07:25:15.497Z,101241.38
2023-02-14T07:27:17.649Z,101239.59
2023-02-14T07:29:19.845Z,101248.44
2023-02-14T07:31:23.695Z,101245.81
2023-02-14T07:33:25.950Z,101246.84
2023-02-14T07:35:30.423Z,101247.84
2023-02-14T07:37:33.869Z,101246.78
2023-02-14T07:39:35.884Z,101238.81
2023-02-14T07:41:38.101Z,101243.19
2023-02-14T07:43:45.055Z,101253.09
2023-02-14T07:45:47.259Z,101243.38
2023-02-14T07:47:51.551Z,101251.19
2023-02-14T07:49:53.799Z,101254.66
2023-02-14T07:51:55.978Z,101251.16
2023-02-14T07:54:00.646Z,101245.13
2023-02-14T07:56:02.816Z,101253.19
2023-02-14T07:58:05.222Z,101243.41
2023-02-14T08:00:08.554Z,101250.47
2023-02-14T08:02:16.151Z,101244.25
2023-02-14T08:04:18.494Z,101241.47
2023-02-14T08:06:20.788Z,101239.81
2023-02-14T08:08:29.007Z,101245.19
2023-02-14T08:10:31.407Z,101248.75
2023-02-14T08:12:51.984Z,101242.56
2023-02-14T08:14:54.700Z,101240.72
2023-02-14T08:16:57.096Z,101249.69
2023-02-14T08:18:59.251Z,101240.84
2023-02-14T08:21:01.808Z,101244.44
2023-02-14T08:23:04.399Z,101243.53
2023-02-14T08:25:07.151Z,101247.06
2023-02-14T08:27:09.161Z,101246.16
2023-02-14T08:29:11.258Z,101245.31
2023-02-14T08:31:14.834Z,101251.47
2023-02-14T08:33:18.602Z,101249.66
2023-02-14T08:35:20.681Z,101243.41
2023-02-14T08:37:23.068Z,101251.41
2023-02-14T08:39:25.597Z,101252.34
2023-02-14T08:41:27.757Z,101247.09
2023-02-14T08:43:29.873Z,101245.38
2023-02-14T08:45:32.353Z,101242.78
2023-02-14T08:47:36.128Z,101240.91
2023-02-14T08:49:38.417Z,101249.88
2023-02-14T08:51:40.549Z,101247.31
2023-02-14T08:53:43.712Z,101256.22
2023-02-14T08:55:46.219Z,101247.31
2023-02-14T08:57:49.634Z,101249.94
2023-02-14T08:59:51.581Z,101257.84
2023-02-14T09:01:53.942Z,101259.59
2023-02-14T09:03:57.123Z,101261.47
2023-02-14T09:06:07.061Z,101257.97
2023-02-14T09:08:09.396Z,101254.47
2023-02-14T09:10:11.984Z,101258.06
2023-02-14T09:12:14.122Z,101258.94
2023-02-14T09:14:16.405Z,101253.66
2023-02-14T09:16:22.371Z,101274.94
2023-02-14T09:18:24.779Z,101261.72
2023-02-14T09:20:26.964Z,101260.81
2023-02-14T09:22:29.388Z,101268.84
2023-02-14T09:24:33.262Z,101264.31
2023-02-14T09:26:37.184Z,101259.88
2023-02-14T09:28:40.179Z,101259.91
2023-02-14T09:30:42.682Z,101262.53
2023-02-14T09:32:45.020Z,101266.25
2023-02-14T09:34:47.189Z,101260.09
2023-02-14T09:37:07.820Z,101260.00
2023-02-14T09:39:09.883Z,101253.00
2023-02-14T09:41:52.519Z,101252.97
2023-02-14T09:44:15.989Z,101264.41
2023-02-14T09:46:19.769Z,101261.88
2023-02-14T09:48:31.748Z,101271.69
2023-02-14T09:50:49.150Z,101262.78
2023-02-14T09:52:56.053Z,101261.91
2023-02-14T09:55:01.586Z,101268.19
2023-02-14T09:57:46.764Z,101264.63
2023-02-14T09:59:55.229Z,101260.22
2023-02-14T10:02:06.981Z,101267.41
2023-02-14T10:04:42.924Z,101264.69
2023-02-14T10:07:17.662Z,101262.06
2023-02-14T10:09:34.562Z,101264.75
2023-02-14T10:11:37.535Z,101266.59
2023-02-14T10:14:04.318Z,101260.31
2023-02-14T10:16:32.759Z,101268.31
2023-02-14T10:18:43.217Z,101267.56
2023-02-14T10:20:49.229Z,101254.25
2023-02-14T10:23:03.078Z,101256.06
2023-02-14T10:25:20.354Z,101248.94
2023-02-14T10:27:40.617Z,101249.84
2023-02-14T10:29:42.898Z,101254.34
2023-02-14T10:31:57.783Z,101249.03
2023-02-14T10:34:08.377Z,101241.97
2023-02-14T10:36:23.862Z,101251.84
2023-02-14T10:38:41.087Z,101243.81
2023-02-14T10:40:46.133Z,101241.19
2023-02-14T10:43:16.322Z,101238.50
2023-02-14T10:45:24.164Z,101249.25
2023-02-14T10:47:47.212Z,101247.44
2023-02-14T10:50:19.593Z,101245.66
2023-02-14T10:52:39.161Z,101242.13
2023-02-14T10:54:51.002Z,101244.78
2023-02-14T10:57:04.381Z,101233.22
2023-02-14T10:59:19.325Z,101241.25
2023-02-14T11:01:22.388Z,101236.81
2023-02-14T11:03:24.782Z,101242.16
2023-02-14T11:05:46.941Z,101235.91
2023-02-14T11:07:49.687Z,101243.03
2023-02-14T11:09:51.899Z,101235.03
2023-02-14T11:11:57.383Z,101241.28
2023-02-14T11:14:02.156Z,101228.81
2023-02-14T11:16:10.906Z,101234.16
2023-02-14T11:18:31.990Z,101235.03
2023-02-14T11:20:34.148Z,101236.84
2023-02-14T11:22:36.467Z,101229.69
2023-02-14T11:24:42.030Z,101232.38
2023-02-14T11:26:50.266Z,101233.25
2023-02-14T11:28:57.546Z,101227.88
2023-02-14T11:31:00.471Z,101231.47
2023-02-14T11:33:04.939Z,101230.59
2023-02-14T11:35:34.656Z,101227.00
2023-02-14T11:37:46.351Z,101216.31
2023-02-14T11:39:50.149Z,101212.69
2023-02-14T11:41:56.534Z,101211.81
2023-02-14T11:44:15.591Z,101203.78
2023-02-14T11:46:21.250Z,101201.97
2023-02-14T11:48:37.858Z,101195.75
2023-02-14T11:50:42.772Z,101202.88
2023-02-14T11:52:57.238Z,101195.72
2023-02-14T11:55:00.758Z,101186.81
2023-02-14T11:57:28.560Z,101185.00
2023-02-14T11:59:56.418Z,101191.22
2023-02-14T12:02:03.711Z,101182.31
2023-02-14T12:04:15.574Z,101183.19
2023-02-14T12:06:36.974Z,101185.00
2023-02-14T12:08:42.075Z,101178.72
2023-02-14T12:10:44.320Z,101172.44
2023-02-14T12:12:50.865Z,101170.66
2023-02-14T12:15:10.603Z,101168.88
2023-02-14T12:17:31.792Z,101172.38
2023-02-14T12:20:01.356Z,101167.94
2023-02-14T12:22:06.656Z,101166.13
2023-02-14T12:24:16.989Z,101166.13
2023-02-14T12:26:32.423Z,101161.63
2023-02-14T12:28:44.229Z,101163.38
2023-02-14T12:30:47.113Z,101157.06
2023-02-14T12:32:52.493Z,101157.97
2023-02-14T12:35:04.483Z,101157.06
2023-02-14T12:37:30.806Z,101155.31
2023-02-14T12:39:41.667Z,101166.84
2023-02-14T12:42:00.250Z,101158.81
2023-02-14T12:44:16.534Z,101156.97
2023-02-14T12:46:55.993Z,101150.72
2023-02-14T12:49:32.585Z,101149.81
2023-02-14T12:52:03.747Z,101150.72
2023-02-14T12:54:55.768Z,101151.66
2023-02-14T12:57:13.634Z,101149.84
2023-02-14T12:59:44.695Z,101160.53
2023-02-14T13:02:05.318Z,101151.56
2023-02-14T13:04:35.163Z,101160.56
2023-02-14T13:06:41.271Z,101164.09
2023-02-14T13:09:10.847Z,101157.00
2023-02-14T13:11:13.168Z,101164.09
2023-02-14T13:13:33.351Z,101164.06
2023-02-14T13:16:02.041Z,101163.22
2023-02-14T13:18:15.895Z,101165.94
2023-02-14T13:20:56.530Z,101167.72
2023-02-14T13:23:04.409Z,101162.28
2023-02-14T13:25:31.862Z,101171.28
2023-02-14T13:27:38.477Z,101175.75
2023-02-14T13:29:48.673Z,101174.00
2023-02-14T13:31:54.305Z,101170.41
2023-02-14T13:34:07.874Z,101163.34
2023-02-14T13:36:13.313Z,101167.72
2023-02-14T13:38:18.518Z,101163.28
2023-02-14T13:40:28.184Z,101163.34
2023-02-14T13:42:51.896Z,101164.22
2023-02-14T13:44:54.094Z,101166.81
2023-02-14T13:46:56.279Z,101153.47
2023-02-14T13:49:02.933Z,101158.84
2023-02-14T13:51:10.160Z,101157.91
2023-02-14T13:53:13.941Z,101169.50
2023-02-14T13:55:26.348Z,101161.53
2023-02-14T13:57:36.656Z,101163.25
2023-02-14T13:59:38.824Z,101157.97
2023-02-14T14:01:50.290Z,101161.53
2023-02-14T14:03:55.430Z,101162.38
2023-02-14T14:06:03.043Z,101157.97
2023-02-14T14:08:35.304Z,101161.56
2023-02-14T14:10:47.463Z,101158.91
2023-02-14T14:12:52.259Z,101166.03
2023-02-14T14:15:06.588Z,101157.97
2023-02-14T14:17:20.804Z,101164.22
2023-02-14T14:19:25.929Z,101160.72
2023-02-14T14:21:38.021Z,101157.97
2023-02-14T14:23:42.084Z,101158.00
2023-02-14T14:25:45.097Z,101156.25
2023-02-14T14:27:48.051Z,101157.13
2023-02-14T14:30:25.936Z,101154.47
2023-02-14T14:32:32.820Z,101151.81
2023-02-14T14:34:34.879Z,101148.22
2023-02-14T14:36:36.885Z,101150.91
2023-02-14T14:38:51.152Z,101147.38
2023-02-14T14:40:56.219Z,101149.13
2023-02-14T14:43:24.469Z,101137.56
2023-02-14T14:45:31.769Z,101140.22
2023-02-14T14:47:43.500Z,101138.44
2023-02-14T14:49:46.060Z,101137.50
2023-02-14T14:51:49.373Z,101131.31
2023-02-14T14:53:56.170Z,101127.72
2023-02-14T14:55:59.048Z,101130.41
2023-02-14T14:58:09.179Z,101128.59
2023-02-14T15:00:22.771Z,101132.19
2023-02-14T15:02:30.114Z,101125.91
2023-02-14T15:04:36.128Z,101121.53
2023-02-14T15:06:39.108Z,101125.94
2023-02-14T15:08:41.399Z,101128.63
2023-02-14T15:10:48.399Z,101131.34
2023-02-14T15:13:12.008Z,101134.91
2023-02-14T15:15:16.989Z,101134.03
2023-02-14T15:17:31.939Z,101134.06
2023-02-14T15:19:41.079Z,101142.09
2023-02-14T15:21:46.223Z,101140.31
2023-02-14T15:23:48.963Z,101138.53
2023-02-14T15:25:52.513Z,101135.84
2023-02-14T15:27:54.479Z,101139.44
2023-02-14T15:30:09.060Z,101142.13
2023-02-14T15:32:12.170Z,101142.09
2023-02-14T15:34:14.857Z,101137.63
2023-02-14T15:36:22.839Z,101144.78
2023-02-14T15:38:26.629Z,101144.78
2023-02-14T15:40:31.982Z,101144.81
2023-02-14T15:42:40.663Z,101146.56
2023-02-14T15:44:42.707Z,101148.38
2023-02-14T15:46:45.314Z,101150.16
2023-02-14T15:48:48.252Z,101154.59
2023-02-14T15:50:56.229Z,101162.69
2023-02-14T15:53:24.023Z,101165.38
2023-02-14T15:55:33.435Z,101165.38
2023-02-14T15:57:36.864Z,101169.81
2023-02-14T15:59:42.472Z,101165.38
2023-02-14T16:02:00.838Z,101170.72
2023-02-14T16:04:05.486Z,101178.78
2023-02-14T16:06:29.533Z,101175.19
2023-02-14T16:08:37.629Z,101178.75
2023-02-14T16:10:42.655Z,101176.97
2023-02-14T16:12:57.638Z,101177.88
2023-02-14T16:15:09.946Z,101186.84
2023-02-14T16:17:14.298Z,101173.41
2023-02-14T16:19:33.018Z,101180.59
2023-02-14T16:21:35.277Z,101182.38
2023-02-14T16:23:37.783Z,101181.47
2023-02-14T16:25:41.445Z,101177.91
2023-02-14T16:27:43.427Z,101181.47
2023-02-14T16:29:45.489Z,101178.78
2023-02-14T16:34:20.313Z,101186.84
2023-02-14T16:36:28.249Z,101187.75
2023-02-14T16:38:32.522Z,101187.75
2023-02-14T16:40:35.451Z,101185.06
2023-02-14T16:42:39.820Z,101191.31
2023-02-14T16:44:41.982Z,101185.94
2023-02-14T16:46:45.640Z,101186.84
2023-02-14T16:48:52.477Z,101185.06
2023-02-14T16:50:57.459Z,101194.00
2023-02-14T16:52:59.604Z,101193.09
2023-02-14T16:55:02.850Z,101187.75
2023-02-14T16:57:05.554Z,101190.44
2023-02-14T16:59:09.250Z,101192.19
2023-02-14T17:01:11.349Z,101193.09
2023-02-14T17:03:13.329Z,101202.00
2023-02-14T17:05:15.401Z,101199.34
2023-02-14T17:07:17.566Z,101200.22
2023-02-14T17:09:27.367Z,101198.47
2023-02-14T17:11:31.786Z,101200.25
2023-02-14T17:13:36.992Z,101202.03
2023-02-14T17:15:40.999Z,101202.94
2023-02-14T17:17:44.855Z,101210.06
2023-02-14T17:19:47.133Z,101210.06
2023-02-14T17:21:49.489Z,101211.84
2023-02-14T17:23:51.558Z,101209.19
2023-02-14T17:25:53.723Z,101219.00
2023-02-14T17:27:56.582Z,101215.44
2023-02-14T17:29:58.994Z,101220.78
2023-02-14T17:32:01.187Z,101220.75
2023-02-14T17:34:04.222Z,101215.41
2023-02-14T17:36:12.828Z,101220.78
2023-02-14T17:38:15.072Z,101224.34
2023-02-14T17:40:17.174Z,101221.66
2023-02-14T17:42:19.506Z,101217.19
2023-02-14T17:44:21.736Z,101222.53
2023-02-14T17:46:23.876Z,101223.44
2023-02-14T17:48:26.099Z,101219.00
2023-02-14T17:50:28.340Z,101227.00
2023-02-14T17:52:30.859Z,101230.56
2023-02-14T17:54:37.665Z,101232.38
2023-02-14T17:56:42.927Z,101225.25
2023-02-14T17:58:47.852Z,101224.34
2023-02-14T18:00:50.182Z,101227.00
2023-02-14T18:02:52.402Z,101222.56
2023-02-14T18:04:55.382Z,101226.13
2023-02-14T18:06:57.569Z,101224.34
2023-02-14T18:09:00.217Z,101219.00
2023-02-14T18:11:10.681Z,101211.84
2023-02-14T18:13:13.151Z,101216.31
2023-02-14T18:15:15.698Z,101205.59
2023-02-14T18:17:17.695Z,101206.50
2023-02-14T18:19:20.346Z,101219.00
2023-02-14T18:21:24.689Z,101209.19
2023-02-14T18:23:27.210Z,101206.50
2023-02-14T18:25:29.485Z,101210.06
2023-02-14T18:27:31.461Z,101206.50
2023-02-14T18:29:34.277Z,101210.94
2023-02-14T18:31:38.885Z,101209.16
2023-02-14T18:33:41.580Z,101211.81
2023-02-14T18:35:45.347Z,101212.72
2023-02-14T18:37:47.241Z,101215.41
2023-02-14T18:39:49.683Z,101219.81
2023-02-14T18:41:51.658Z,101214.50
2023-02-14T18:43:53.947Z,101220.75
2023-02-14T18:46:01.987Z,101215.38
2023-02-14T18:48:05.555Z,101218.06
2023-02-14T18:50:33.768Z,101217.13
2023-02-14T18:52:37.293Z,101215.41
2023-02-14T18:54:39.969Z,101210.03
2023-02-14T18:56:42.349Z,101209.16
2023-02-14T18:58:48.136Z,101208.25
2023-02-14T19:00:55.087Z,101217.16
2023-02-14T19:02:57.470Z,101212.72
2023-02-14T19:05:00.847Z,101210.03
2023-02-14T19:07:06.169Z,101214.50
2023-02-14T19:09:14.572Z,101215.38
2023-02-14T19:11:19.917Z,101215.38
2023-02-14T19:13:22.063Z,101210.91
2023-02-14T19:15:24.266Z,101209.16
2023-02-14T19:17:26.409Z,101210.03
2023-02-14T19:19:28.593Z,101218.06
2023-02-14T19:21:36.913Z,101217.16
2023-02-14T19:23:39.524Z,101218.97
2023-02-14T19:25:41.748Z,101218.97
2023-02-14T19:27:43.995Z,101218.97
2023-02-14T19:29:46.286Z,101212.72
2023-02-14T19:31:52.605Z,101212.72
2023-02-14T19:33:55.617Z,101218.06
2023-02-14T19:36:05.706Z,101215.38
2023-02-14T19:38:07.892Z,101216.28
2023-02-14T19:40:10.959Z,101215.38
2023-02-14T19:42:13.284Z,101213.59
2023-02-14T19:44:17.267Z,101212.69
2023-02-14T19:46:20.545Z,101209.13
2023-02-14T19:48:23.096Z,101218.94
2023-02-14T19:50:25.624Z,101222.47
2023-02-14T19:52:28.396Z,101212.72
2023-02-14T19:54:31.056Z,101221.59
2023-02-14T19:56:38.399Z,101218.03
2023-02-14T19:58:41.874Z,101211.78
2023-02-14T20:00:44.404Z,101216.22
2023-02-14T20:02:48.248Z,101213.56
2023-02-14T20:04:50.675Z,101212.69
2023-02-14T20:06:53.544Z,101215.34
2023-02-14T20:08:56.194Z,101210.91
2023-02-14T20:10:58.478Z,101204.66
2023-02-14T20:13:01.921Z,101215.38
2023-02-14T20:15:05.753Z,101211.78
2023-02-14T20:17:08.082Z,101212.72
2023-02-14T20:19:13.320Z,101208.22
2023-02-14T20:21:24.243Z,101216.25
2023-02-14T20:23:26.848Z,101216.25
2023-02-14T20:25:28.965Z,101222.50
2023-02-14T20:27:31.287Z,101212.69
2023-02-14T20:29:33.307Z,101219.81
2023-02-14T20:31:37.477Z,101214.47
2023-02-14T20:33:40.736Z,101216.28
2023-02-14T20:35:42.945Z,101213.56
2023-02-14T20:37:46.295Z,101214.47
2023-02-14T20:39:48.417Z,101219.81
2023-02-14T20:41:50.809Z,101217.13
2023-02-14T20:43:52.813Z,101219.81
2023-02-14T20:45:59.188Z,101223.38
2023-02-14T20:48:04.345Z,101218.91
2023-02-14T20:50:07.242Z,101223.34
2023-02-14T20:52:09.463Z,101219.78
2023-02-14T20:54:11.700Z,101218.91
2023-02-14T20:56:15.406Z,101215.31
2023-02-14T20:58:18.165Z,101207.28
2023-02-14T21:00:20.997Z,101215.31
2023-02-14T21:02:23.113Z,101213.53
2023-02-14T21:04:25.767Z,101212.63
2023-02-14T21:06:32.803Z,101217.09
2023-02-14T21:08:36.428Z,101210.88
2023-02-14T21:10:38.416Z,101210.84
2023-02-14T21:12:41.106Z,101217.09
2023-02-14T21:14:45.887Z,101215.31
2023-02-14T21:16:48.246Z,101210.84
2023-02-14T21:18:59.307Z,101213.53
2023-02-14T21:21:13.549Z,101224.22
2023-02-14T21:23:15.949Z,101218.88
2023-02-14T21:25:18.143Z,101211.72
2023-02-14T21:27:20.570Z,101215.31
2023-02-14T21:29:22.782Z,101207.28
2023-02-14T21:31:28.218Z,101213.50
2023-02-14T21:33:32.487Z,101213.47
2023-02-14T21:35:37.239Z,101215.28
2023-02-14T21:37:39.146Z,101215.25
2023-02-14T21:39:41.850Z,101211.72
2023-02-14T21:41:43.944Z,101221.50
2023-02-14T21:43:48.423Z,101215.25
2023-02-14T21:45:53.782Z,101209.91
2023-02-14T21:48:14.408Z,101214.34
2023-02-14T21:50:31.343Z,101223.28
2023-02-14T21:52:34.040Z,101217.03
2023-02-14T21:54:36.017Z,101224.16
2023-02-14T21:56:39.258Z,101212.56
2023-02-14T21:58:41.700Z,101211.69
2023-02-14T22:00:46.742Z,101214.34
2023-02-14T22:02:48.934Z,101219.72
2023-02-14T22:04:51.912Z,101214.31
2023-02-14T22:06:56.524Z,101217.03
2023-02-14T22:09:00.459Z,101223.25
2023-02-14T22:11:08.207Z,101217.03
2023-02-14T22:13:10.330Z,101215.25
2023-02-14T22:15:12.377Z,101221.47
2023-02-14T22:17:14.474Z,101219.72
2023-02-14T22:19:16.695Z,101221.50
2023-02-14T22:21:24.103Z,101213.44
2023-02-14T22:23:28.987Z,101225.03
2023-02-14T22:25:31.594Z,101220.56
2023-02-14T22:27:38.506Z,101225.94
2023-02-14T22:29:40.814Z,101218.81
2023-02-14T22:31:44.436Z,101217.91
2023-02-14T22:33:47.993Z,101221.50
2023-02-14T22:35:54.916Z,101225.91
2023-02-14T22:37:57.406Z,101227.69
2023-02-14T22:39:59.496Z,101226.81
2023-02-14T22:42:06.939Z,101222.38
2023-02-14T22:44:09.393Z,101227.69
2023-02-14T22:46:17.207Z,101224.13
2023-02-14T22:48:20.449Z,101221.47
2023-02-14T22:50:22.646Z,101222.34
2023-02-14T22:52:24.509Z,101230.38
2023-02-14T22:54:26.610Z,101226.78
2023-02-14T22:56:41.533Z,101217.84
2023-02-14T22:58:43.771Z,101225.00
2023-02-14T23:00:47.764Z,101217.00
2023-02-14T23:02:50.050Z,101225.00
2023-02-14T23:04:52.114Z,101216.97
2023-02-14T23:06:54.501Z,101215.22
2023-02-14T23:08:57.261Z,101217.00
2023-02-14T23:11:10.663Z,101228.53
2023-02-14T23:13:31.611Z,101226.75
2023-02-14T23:15:52.152Z,101223.19
2023-02-14T23:18:13.448Z,101225.88
2023-02-14T23:20:34.075Z,101221.41
2023-02-14T23:22:38.942Z,101224.94
2023-02-14T23:24:41.914Z,101216.06
2023-02-14T23:26:44.239Z,101235.63
2023-02-14T23:28:46.412Z,101228.44
2023-02-14T23:30:48.520Z,101233.81
2023-02-14T23:32:50.508Z,101225.81
2023-02-14T23:34:52.677Z,101221.34
2023-02-14T23:36:55.275Z,101228.47
2023-02-14T23:38:57.645Z,101224.91
2023-02-14T23:41:27.651Z,101225.72
2023-02-14T23:43:31.458Z,101222.16
2023-02-14T23:45:36.225Z,101229.28
2023-02-14T23:47:38.332Z,101223.97
2023-02-14T23:49:42.262Z,101229.31
2023-02-14T23:51:46.470Z,101224.88
2023-02-14T23:53:48.562Z,101222.19
2023-02-14T23:55:50.534Z,101221.31
2023-02-14T23:57:52.846Z,101231.09
2023-02-14T23:59:55.047Z,101224.88
